Time;durP1;ratioP1;P1;durP2;ratioP2;P2;SDS_P1;SDS_P2;PMS_P1;PMS_P2;Temp;Humidity;BMP_temperature;BMP_pressure;BME280_temperature;BME280_humidity;BME280_pressure;Samples;Min_cycle;Max_cycle;Signal;HPM_P1;HPM_P2
2022/10/16 00:00:43;;;;;;;3.25;1.08;;;12.80;99.90;;;;;;5014546;28;20528;-75
2022/10/16 00:03:10;;;;;;;4.22;1.10;;;12.80;99.90;;;;;;5030987;28;20130;-75
2022/10/16 00:08:49;;;;;;;5.97;1.02;;;12.80;99.90;;;;;;4927746;28;20189;-73
2022/10/16 00:11:18;;;;;;;6.03;1.15;;;12.80;99.90;;;;;;5030352;28;20045;-75
2022/10/16 00:13:46;;;;;;;2.40;1.00;;;12.70;99.90;;;;;;5032253;28;20037;-76
2022/10/16 00:16:13;;;;;;;3.85;1.00;;;12.70;99.90;;;;;;5011524;28;20041;-74
2022/10/16 00:18:40;;;;;;;5.22;1.42;;;12.70;99.90;;;;;;4959297;28;20263;-73
2022/10/16 00:21:16;;;;;;;4.97;1.08;;;12.80;99.90;;;;;;4938641;28;20064;-74
2022/10/16 00:23:43;;;;;;;3.15;0.80;;;12.70;99.90;;;;;;5031599;28;20069;-75
2022/10/16 00:26:29;;;;;;;11.15;1.55;;;12.70;99.90;;;;;;4863614;28;20579;-73
2022/10/16 00:29:13;;;;;;;4.68;1.08;;;12.70;99.90;;;;;;4859273;28;20244;-73
2022/10/16 00:31:41;;;;;;;6.32;0.88;;;12.70;99.90;;;;;;4865360;28;20479;-76
2022/10/16 00:34:34;;;;;;;7.45;1.02;;;12.70;99.90;;;;;;4984142;28;20392;-73
2022/10/16 00:37:01;;;;;;;3.13;1.08;;;12.80;99.90;;;;;;5005251;28;20443;-76
2022/10/16 00:39:26;;;;;;;7.30;1.10;;;12.70;99.90;;;;;;5001413;28;20116;-75
2022/10/16 00:41:52;;;;;;;4.10;0.80;;;12.70;99.90;;;;;;4983522;28;20298;-75
2022/10/16 00:44:52;;;;;;;3.90;0.70;;;12.70;99.90;;;;;;5012374;28;20044;-76
2022/10/16 00:47:41;;;;;;;1.70;0.70;;;12.70;99.90;;;;;;5031571;28;20073;-76
2022/10/16 00:50:30;;;;;;;2.25;0.77;;;12.70;99.90;;;;;;5031533;28;20329;-75
2022/10/16 00:52:57;;;;;;;5.65;1.25;;;12.80;99.90;;;;;;5006866;28;20507;-76
2022/10/16 00:55:23;;;;;;;1.85;0.73;;;12.80;99.90;;;;;;5002013;28;20092;-76
2022/10/16 00:57:50;;;;;;;1.77;0.70;;;12.80;99.90;;;;;;5023403;28;20045;-76
2022/10/16 01:00:20;;;;;;;1.73;0.60;;;12.80;99.90;;;;;;5006155;28;20068;-75
2022/10/16 01:02:53;;;;;;;3.17;0.88;;;12.80;99.90;;;;;;5001836;28;20436;-76
2022/10/16 01:05:22;;;;;;;2.53;0.70;;;12.80;99.90;;;;;;5018879;28;20353;-76
2022/10/16 01:07:56;;;;;;;2.80;1.00;;;12.80;99.90;;;;;;5024861;28;20038;-75
2022/10/16 01:11:03;;;;;;;2.63;0.63;;;12.80;99.90;;;;;;5014660;28;20057;-75
2022/10/16 01:13:38;;;;;;;3.38;0.90;;;12.80;99.90;;;;;;5002206;28;20118;-75
2022/10/16 01:16:20;;;;;;;4.25;0.80;;;12.80;99.90;;;;;;5034141;28;20044;-75
2022/10/16 01:18:58;;;;;;;1.83;0.75;;;12.80;99.90;;;;;;5025120;28;20466;-76
2022/10/16 01:21:32;;;;;;;4.43;1.00;;;12.80;99.90;;;;;;5009664;28;20484;-76
2022/10/16 01:24:17;;;;;;;4.72;1.17;;;12.90;99.90;;;;;;5011935;28;20044;-76
2022/10/16 01:27:02;;;;;;;3.33;0.93;;;12.90;99.90;;;;;;5013392;28;20060;-76
2022/10/16 01:29:52;;;;;;;2.83;0.80;;;12.90;99.90;;;;;;5009334;28;20056;-75
2022/10/16 01:32:23;;;;;;;3.50;0.88;;;12.90;99.90;;;;;;5007600;28;20045;-76
2022/10/16 01:34:57;;;;;;;2.63;0.55;;;12.90;99.90;;;;;;5006536;28;20114;-76
2022/10/16 01:37:32;;;;;;;1.60;0.85;;;12.90;99.90;;;;;;5021061;28;20045;-76
2022/10/16 01:40:02;;;;;;;2.63;1.00;;;12.90;99.90;;;;;;5009033;28;20055;-76
2022/10/16 01:42:35;;;;;;;3.40;0.90;;;12.90;99.90;;;;;;5026719;28;20160;-76
2022/10/16 01:45:02;;;;;;;2.35;0.85;;;12.90;99.90;;;;;;5007161;28;20499;-76
2022/10/16 01:47:31;;;;;;;6.97;0.93;;;12.90;99.90;;;;;;5014295;28;20399;-76
2022/10/16 01:49:58;;;;;;;1.65;0.70;;;12.90;99.90;;;;;;5004228;28;20045;-75
2022/10/16 01:52:26;;;;;;;2.13;1.00;;;13.00;99.90;;;;;;5008491;28;20124;-76
2022/10/16 01:54:55;;;;;;;3.85;1.00;;;13.00;99.90;;;;;;5022265;28;20538;-76
2022/10/16 01:57:23;;;;;;;4.28;0.95;;;13.00;99.90;;;;;;5013384;28;20103;-76
2022/10/16 01:59:53;;;;;;;3.60;0.70;;;13.00;99.90;;;;;;5007141;28;20112;-76
2022/10/16 02:02:21;;;;;;;2.38;0.98;;;13.00;99.90;;;;;;5012173;28;20045;-76
2022/10/16 02:04:57;;;;;;;3.97;0.90;;;13.00;99.90;;;;;;5028708;28;20353;-76
2022/10/16 02:07:23;;;;;;;4.28;1.30;;;13.10;99.90;;;;;;5025527;28;20379;-76
2022/10/16 02:09:49;;;;;;;1.75;0.88;;;13.00;99.90;;;;;;5007862;28;20381;-76
2022/10/16 02:12:29;;;;;;;5.93;0.90;;;13.00;99.90;;;;;;5025156;28;20044;-76
2022/10/16 02:14:55;;;;;;;3.42;1.48;;;13.00;99.90;;;;;;5002698;28;20064;-76
2022/10/16 02:17:21;;;;;;;2.72;0.70;;;13.00;99.90;;;;;;5012177;28;20085;-76
2022/10/16 02:19:49;;;;;;;2.00;0.90;;;13.00;99.90;;;;;;5003256;28;20273;-76
2022/10/16 02:22:26;;;;;;;3.10;0.80;;;13.00;99.90;;;;;;5024603;28;20080;-76
2022/10/16 02:25:01;;;;;;;3.00;0.90;;;13.00;99.90;;;;;;5023263;28;20037;-76
2022/10/16 02:27:55;;;;;;;3.50;0.90;;;13.00;99.90;;;;;;5007920;28;20507;-76
2022/10/16 02:30:38;;;;;;;2.25;0.77;;;13.00;99.90;;;;;;5006779;28;20442;-76
2022/10/16 02:33:09;;;;;;;2.78;0.70;;;13.00;99.90;;;;;;5003154;28;20518;-76
2022/10/16 02:35:35;;;;;;;2.97;0.88;;;13.00;99.90;;;;;;5019575;28;20062;-76
2022/10/16 02:38:01;;;;;;;3.50;0.98;;;13.00;99.90;;;;;;5046667;22;20452;-76
2022/10/16 02:40:28;;;;;;;2.63;1.00;;;13.10;99.90;;;;;;5052837;28;20193;-76
2022/10/16 02:42:55;;;;;;;1.98;0.90;;;13.00;99.90;;;;;;5036569;28;20064;-78
2022/10/16 02:45:21;;;;;;;4.03;1.00;;;12.90;99.90;;;;;;5057334;28;20040;-76
2022/10/16 02:47:47;;;;;;;;;;;12.90;99.90;;;;;;5036495;28;20224;-78
2022/10/16 02:50:13;;;;;;;1.27;0.70;;;12.90;99.90;;;;;;5058606;28;19916;-76
2022/10/16 02:52:38;;;;;;;2.70;0.90;;;12.90;99.90;;;;;;5052163;28;20217;-77
2022/10/16 02:55:04;;;;;;;4.55;1.00;;;12.90;99.90;;;;;;5055175;28;20123;-77
2022/10/16 02:57:31;;;;;;;1.45;0.82;;;12.90;99.90;;;;;;5035280;28;20045;-76
2022/10/16 02:59:57;;;;;;;3.78;1.00;;;12.90;99.90;;;;;;5038965;28;20621;-76
2022/10/16 03:02:23;;;;;;;1.38;0.68;;;12.80;99.90;;;;;;5060292;28;20043;-76
2022/10/16 03:04:48;;;;;;;3.30;1.00;;;12.80;99.90;;;;;;5052055;28;20387;-77
2022/10/16 03:07:14;;;;;;;2.65;0.95;;;12.70;99.90;;;;;;5028847;28;20502;-77
2022/10/16 03:09:40;;;;;;;2.65;1.17;;;12.80;99.90;;;;;;5021400;28;20106;-77
2022/10/16 03:12:06;;;;;;;9.37;1.00;;;12.90;99.90;;;;;;5061551;28;20068;-77
2022/10/16 03:14:32;;;;;;;2.70;0.90;;;12.80;99.90;;;;;;5054679;28;20040;-77
2022/10/16 03:16:58;;;;;;;2.83;1.10;;;12.70;99.90;;;;;;5035168;28;20610;-76
2022/10/16 03:19:23;;;;;;;3.27;0.87;;;12.60;99.90;;;;;;5046911;28;20471;-77
2022/10/16 03:21:49;;;;;;;3.33;0.80;;;12.70;99.90;;;;;;5054743;28;20378;-78
2022/10/16 03:24:15;;;;;;;2.57;0.60;;;12.70;99.90;;;;;;5036803;28;20149;-77
2022/10/16 03:26:40;;;;;;;2.22;0.82;;;12.70;99.90;;;;;;5044825;28;20048;-76
2022/10/16 03:29:06;;;;;;;1.60;0.80;;;12.60;99.90;;;;;;5043652;28;20599;-76
2022/10/16 03:31:32;;;;;;;3.47;0.90;;;12.70;99.90;;;;;;5060389;28;20474;-76
2022/10/16 03:33:58;;;;;;;2.90;1.30;;;12.70;99.90;;;;;;5042197;28;20053;-76
2022/10/16 03:36:24;;;;;;;2.10;0.93;;;12.70;99.90;;;;;;5057562;28;20044;-78
2022/10/16 03:38:49;;;;;;;1.73;0.83;;;12.70;99.90;;;;;;5044262;28;20235;-77
2022/10/16 03:41:15;;;;;;;2.70;0.82;;;12.70;99.90;;;;;;5064082;28;20044;-78
2022/10/16 03:43:41;;;;;;;2.65;1.05;;;12.70;99.90;;;;;;5042985;28;20052;-76
2022/10/16 03:46:06;;;;;;;2.58;0.77;;;12.60;99.90;;;;;;5040261;28;20319;-76
2022/10/16 03:48:32;;;;;;;1.40;0.77;;;12.60;99.90;;;;;;5056462;28;20044;-77
2022/10/16 03:50:58;;;;;;;3.60;0.75;;;12.60;99.90;;;;;;5045040;28;20068;-77
2022/10/16 03:53:24;;;;;;;7.40;1.15;;;12.60;99.90;;;;;;5023230;28;20609;-77
2022/10/16 03:55:49;;;;;;;1.35;0.82;;;12.60;99.90;;;;;;5061388;28;20032;-78
2022/10/16 03:58:15;;;;;;;4.88;1.15;;;12.60;99.90;;;;;;5037612;28;20067;-78
2022/10/16 04:00:42;;;;;;;1.80;0.77;;;12.60;99.90;;;;;;5042366;28;20047;-76
2022/10/16 04:03:08;;;;;;;3.10;0.80;;;12.60;99.90;;;;;;5040729;28;20120;-77
2022/10/16 04:05:34;;;;;;;4.00;0.68;;;12.60;99.90;;;;;;5052850;28;20385;-77
2022/10/16 04:07:59;;;;;;;2.22;0.90;;;12.60;99.90;;;;;;5057995;28;20047;-77
2022/10/16 04:10:25;;;;;;;1.83;0.90;;;12.60;99.90;;;;;;5049354;28;20675;-77
2022/10/16 04:12:51;;;;;;;4.27;0.80;;;12.60;99.90;;;;;;5051479;28;20062;-77
2022/10/16 04:15:17;;;;;;;1.07;0.60;;;12.60;99.90;;;;;;5052672;28;20332;-76
2022/10/16 04:17:42;;;;;;;3.88;1.15;;;12.70;99.90;;;;;;5046016;28;20121;-77
2022/10/16 04:20:08;;;;;;;2.05;0.77;;;12.60;99.90;;;;;;5057203;28;20125;-77
2022/10/16 04:22:34;;;;;;;1.55;0.73;;;12.60;99.90;;;;;;5038138;28;20525;-76
2022/10/16 04:24:59;;;;;;;3.23;1.00;;;12.60;99.90;;;;;;5038097;28;20277;-77
2022/10/16 04:27:25;;;;;;;2.77;0.80;;;12.70;99.90;;;;;;5062751;28;20036;-77
2022/10/16 04:29:50;;;;;;;3.60;0.90;;;12.70;99.90;;;;;;5038968;28;20284;-78
2022/10/16 04:32:16;;;;;;;3.30;1.00;;;12.70;99.90;;;;;;5045983;28;20040;-78
2022/10/16 04:34:42;;;;;;;3.90;1.27;;;12.70;99.90;;;;;;5037915;28;20044;-77
2022/10/16 04:37:07;;;;;;;3.97;1.00;;;12.70;99.90;;;;;;5027970;28;20102;-76
2022/10/16 04:39:33;;;;;;;4.47;0.80;;;12.70;99.90;;;;;;5057757;28;20082;-77
2022/10/16 04:41:59;;;;;;;2.92;0.98;;;12.70;99.90;;;;;;5038850;28;20041;-77
2022/10/16 04:44:24;;;;;;;2.37;0.90;;;12.70;99.90;;;;;;5058018;28;20312;-76
2022/10/16 04:46:51;;;;;;;3.70;0.80;;;12.80;99.90;;;;;;5042771;28;20541;-78
2022/10/16 04:49:16;;;;;;;;;;;12.80;99.90;;;;;;5046692;28;20042;-78
2022/10/16 04:51:42;;;;;;;3.28;0.80;;;12.70;99.90;;;;;;5036330;28;20412;-78
2022/10/16 04:54:09;;;;;;;3.53;1.10;;;12.80;99.90;;;;;;5042788;28;20514;-78
2022/10/16 04:56:42;;;;;;;2.10;0.98;;;12.80;99.90;;;;;;5035102;28;20204;-77
2022/10/16 04:59:08;;;;;;;5.35;1.05;;;12.80;99.90;;;;;;5040966;28;20158;-77
2022/10/16 05:01:34;;;;;;;2.70;0.73;;;12.80;99.90;;;;;;5041618;28;20374;-77
2022/10/16 05:03:59;;;;;;;8.57;1.27;;;12.80;99.90;;;;;;5054157;28;20501;-76
2022/10/16 05:06:25;;;;;;;2.03;0.73;;;12.80;99.90;;;;;;5037658;28;20051;-79
2022/10/16 05:08:51;;;;;;;2.30;0.90;;;12.80;99.90;;;;;;5036998;28;20063;-76
2022/10/16 05:11:16;;;;;;;4.25;1.23;;;12.90;99.90;;;;;;5054496;28;20528;-76
2022/10/16 05:13:42;;;;;;;4.30;1.20;;;12.80;99.90;;;;;;5046553;28;20092;-78
2022/10/16 05:16:07;;;;;;;3.70;1.07;;;12.80;99.90;;;;;;5021553;28;20040;-77
2022/10/16 05:18:33;;;;;;;3.27;1.30;;;12.90;99.90;;;;;;5039102;28;20121;-77
2022/10/16 05:20:59;;;;;;;2.87;1.10;;;12.80;99.90;;;;;;5046251;28;20169;-76
2022/10/16 05:23:24;;;;;;;4.10;1.37;;;12.90;99.90;;;;;;5040859;28;20068;-76
2022/10/16 05:25:57;;;;;;;4.17;1.10;;;12.90;99.90;;;;;;5055199;28;20550;-78
2022/10/16 05:28:28;;;;;;;4.25;1.48;;;12.90;99.90;;;;;;5024397;28;20064;-77
2022/10/16 05:30:54;;;;;;;5.57;1.50;;;12.90;99.90;;;;;;5036337;28;20079;-76
2022/10/16 05:33:21;;;;;;;2.88;1.20;;;12.90;99.90;;;;;;5051572;28;20247;-77
2022/10/16 05:35:46;;;;;;;2.92;0.98;;;12.90;99.90;;;;;;5035719;28;20163;-78
2022/10/16 05:38:12;;;;;;;2.20;1.27;;;12.90;99.90;;;;;;5028016;28;20140;-77
2022/10/16 05:40:38;;;;;;;1.70;0.83;;;12.90;99.90;;;;;;5042061;28;20063;-78
2022/10/16 05:43:03;;;;;;;2.83;1.30;;;12.90;99.90;;;;;;5047535;28;20441;-76
2022/10/16 05:45:30;;;;;;;1.97;1.20;;;12.90;99.90;;;;;;5040574;28;20048;-77
2022/10/16 05:47:55;;;;;;;2.28;1.20;;;12.90;99.90;;;;;;5044810;28;20037;-78
2022/10/16 05:50:21;;;;;;;3.43;1.37;;;12.90;99.90;;;;;;5027015;28;20040;-77
2022/10/16 05:52:46;;;;;;;2.33;1.07;;;12.90;99.90;;;;;;5042320;28;20039;-76
2022/10/16 05:55:12;;;;;;;2.37;1.13;;;12.90;99.90;;;;;;5035203;28;20049;-78
2022/10/16 05:57:38;;;;;;;5.70;1.50;;;12.90;99.90;;;;;;5039315;28;20044;-78
2022/10/16 06:00:04;;;;;;;3.78;1.50;;;12.90;99.90;;;;;;5028787;28;20711;-79
2022/10/16 06:02:30;;;;;;;3.65;1.33;;;12.90;99.90;;;;;;5057138;28;20344;-77
2022/10/16 06:04:55;;;;;;;5.10;1.70;;;12.90;99.90;;;;;;5053593;28;20040;-76
2022/10/16 06:07:22;;;;;;;4.93;1.58;;;12.80;99.90;;;;;;5029407;28;20056;-77
2022/10/16 06:09:48;;;;;;;;;;;12.90;99.90;;;;;;5039416;28;20048;-76
2022/10/16 06:12:14;;;;;;;2.28;1.00;;;12.90;99.90;;;;;;5051050;28;19920;-77
2022/10/16 06:14:39;;;;;;;4.53;1.50;;;12.90;99.90;;;;;;5037934;28;20086;-76
2022/10/16 06:17:05;;;;;;;2.20;1.47;;;12.90;99.90;;;;;;5049950;28;20127;-77
2022/10/16 06:19:31;;;;;;;5.73;1.20;;;12.90;99.90;;;;;;5046476;28;20117;-78
2022/10/16 06:21:58;;;;;;;3.47;1.10;;;12.90;99.90;;;;;;5037795;28;20131;-78
2022/10/16 06:24:24;;;;;;;3.47;1.33;;;12.90;99.90;;;;;;5016688;28;20086;-78
2022/10/16 06:26:50;;;;;;;2.85;1.35;;;12.90;99.90;;;;;;5063865;28;20110;-78
2022/10/16 06:29:15;;;;;;;3.10;1.55;;;12.90;99.90;;;;;;5035319;28;20044;-79
2022/10/16 06:31:41;;;;;;;3.27;1.27;;;12.90;99.90;;;;;;5057824;28;20149;-78
2022/10/16 06:34:10;;;;;;;5.10;1.48;;;12.90;99.90;;;;;;5041339;28;20844;-76
2022/10/16 06:36:36;;;;;;;3.97;1.20;;;13.00;99.90;;;;;;5039639;28;20296;-78
2022/10/16 06:39:02;;;;;;;2.28;1.02;;;13.00;99.90;;;;;;5032908;28;20394;-79
2022/10/16 06:41:28;;;;;;;2.40;1.00;;;13.00;99.90;;;;;;5043221;28;20044;-77
2022/10/16 06:43:54;;;;;;;2.37;1.07;;;13.00;99.90;;;;;;5039176;28;20074;-74
2022/10/16 06:46:23;;;;;;;6.83;1.20;;;13.00;99.90;;;;;;5037308;28;20376;-76
2022/10/16 06:48:49;;;;;;;3.55;1.38;;;13.10;99.90;;;;;;5052881;28;20130;-74
2022/10/16 06:51:17;;;;;;;4.03;1.27;;;13.00;99.90;;;;;;5014419;28;20124;-74
2022/10/16 06:53:51;;;;;;;2.55;0.98;;;13.00;99.90;;;;;;5041071;28;20501;-74
2022/10/16 06:56:20;;;;;;;2.92;1.20;;;13.10;99.90;;;;;;5041483;28;20079;-74
2022/10/16 06:58:46;;;;;;;3.17;1.35;;;13.10;99.90;;;;;;5035810;28;20036;-74
2022/10/16 07:01:13;;;;;;;3.47;1.17;;;13.10;99.90;;;;;;5048009;28;20036;-74
2022/10/16 07:03:40;;;;;;;3.13;1.23;;;13.10;99.90;;;;;;5054056;28;20089;-74
2022/10/16 07:06:08;;;;;;;5.93;1.20;;;13.10;99.90;;;;;;5059358;28;20058;-73
2022/10/16 07:08:36;;;;;;;4.65;1.10;;;13.10;99.90;;;;;;5055417;28;21042;-76
2022/10/16 07:11:03;;;;;;;6.50;1.13;;;13.00;99.90;;;;;;5050334;28;20115;-75
2022/10/16 07:13:29;;;;;;;3.50;1.33;;;13.00;99.90;;;;;;5048834;28;20041;-77
2022/10/16 07:15:54;;;;;;;3.93;1.00;;;13.00;99.90;;;;;;5036307;28;20504;-78
2022/10/16 07:18:21;;;;;;;3.90;1.73;;;13.10;99.90;;;;;;5048207;28;20049;-76
2022/10/16 07:20:47;;;;;;;4.38;1.55;;;13.00;99.90;;;;;;5065352;28;20288;-76
2022/10/16 07:23:12;;;;;;;1.80;1.03;;;13.10;99.90;;;;;;5038145;28;20049;-77
2022/10/16 07:25:38;;;;;;;4.43;1.43;;;13.00;99.90;;;;;;5034863;28;20868;-77
2022/10/16 07:28:04;;;;;;;3.13;1.37;;;13.00;99.90;;;;;;5039949;28;20060;-76
2022/10/16 07:30:29;;;;;;;4.47;1.00;;;13.00;99.90;;;;;;5039701;28;20497;-77
2022/10/16 07:32:55;;;;;;;2.03;1.10;;;13.00;99.90;;;;;;5055066;28;20503;-78
2022/10/16 07:35:20;;;;;;;5.23;1.23;;;13.00;99.90;;;;;;5039161;28;20145;-76
2022/10/16 07:37:46;;;;;;;2.03;1.20;;;13.00;99.90;;;;;;5042301;28;20109;-76
2022/10/16 07:40:12;;;;;;;5.68;1.45;;;13.00;99.90;;;;;;5050243;28;20112;-77
2022/10/16 07:42:38;;;;;;;6.80;1.30;;;12.90;99.90;;;;;;5038530;28;20156;-76
2022/10/16 07:45:04;;;;;;;4.85;1.30;;;13.00;99.90;;;;;;5038619;28;20592;-79
2022/10/16 07:47:30;;;;;;;2.30;1.00;;;12.90;99.90;;;;;;5052217;28;20091;-79
2022/10/16 07:49:56;;;;;;;2.78;1.10;;;13.00;99.90;;;;;;5039879;28;20036;-79
2022/10/16 07:52:21;;;;;;;5.03;1.40;;;13.00;99.90;;;;;;5058991;28;20036;-78
2022/10/16 07:54:47;;;;;;;4.40;1.37;;;13.00;99.90;;;;;;5032876;28;20599;-77
2022/10/16 07:57:19;;;;;;;4.53;1.23;;;13.00;99.90;;;;;;5044046;28;20277;-76
2022/10/16 07:59:45;;;;;;;6.45;1.45;;;13.10;99.90;;;;;;5034846;28;20298;-77
2022/10/16 08:02:12;;;;;;;3.33;0.98;;;13.10;99.90;;;;;;5056935;28;20032;-77
2022/10/16 08:04:38;;;;;;;1.92;1.10;;;13.10;99.90;;;;;;5057407;28;20040;-76
2022/10/16 08:07:04;;;;;;;;;;;13.20;99.90;;;;;;5063768;28;20040;-77
2022/10/16 08:09:40;;;;;;;5.30;1.17;;;13.20;99.90;;;;;;5032463;28;20265;-80
2022/10/16 08:12:10;;;;;;;3.83;1.40;;;13.20;99.90;;;;;;4993932;28;20131;-77
2022/10/16 08:14:35;;;;;;;2.08;1.00;;;13.30;99.90;;;;;;5037350;28;20047;-75
2022/10/16 08:17:02;;;;;;;4.28;1.95;;;13.30;99.90;;;;;;5031005;28;20048;-75
2022/10/16 08:19:27;;;;;;;;;;;13.40;99.90;;;;;;5031048;28;20064;-76
2022/10/16 08:21:53;;;;;;;4.63;1.17;;;13.50;99.90;;;;;;5039560;28;19995;-76
2022/10/16 08:24:19;;;;;;;4.85;1.02;;;13.60;99.90;;;;;;5052568;28;20508;-75
2022/10/16 08:26:44;;;;;;;4.78;1.13;;;13.60;99.90;;;;;;5064469;28;20150;-75
2022/10/16 08:29:10;;;;;;;6.83;1.07;;;13.70;99.90;;;;;;5059013;28;20040;-77
2022/10/16 08:31:38;;;;;;;6.43;1.00;;;13.80;99.90;;;;;;5049439;28;20037;-75
2022/10/16 08:34:04;;;;;;;4.43;1.00;;;13.80;99.90;;;;;;5038116;28;20394;-77
2022/10/16 08:36:29;;;;;;;6.18;0.88;;;13.80;99.90;;;;;;5063109;22;20042;-71
2022/10/16 08:38:55;;;;;;;1.17;0.88;;;13.90;99.90;;;;;;5108658;28;20437;-71
2022/10/16 08:41:51;;;;;;;4.00;1.17;;;14.00;99.90;;;;;;5107886;28;20059;-71
2022/10/16 08:44:55;;;;;;;3.60;1.63;;;14.20;99.90;;;;;;5087487;28;20044;-71
2022/10/16 08:47:59;;;;;;;5.95;0.80;;;14.20;99.90;;;;;;5026079;28;20045;-71
2022/10/16 08:50:27;;;;;;;2.67;0.93;;;14.30;99.90;;;;;;5023324;28;20061;-71
2022/10/16 08:52:54;;;;;;;5.43;1.42;;;14.30;99.90;;;;;;5051522;28;20048;-70
2022/10/16 08:55:43;;;;;;;2.85;0.80;;;14.30;99.90;;;;;;5066531;28;20438;-71
2022/10/16 08:58:14;;;;;;;4.15;1.00;;;14.40;99.90;;;;;;5067695;28;20076;-71
2022/10/16 09:00:40;;;;;;;2.45;1.02;;;14.30;99.90;;;;;;5067312;28;20048;-71
2022/10/16 09:03:17;;;;;;;4.78;0.90;;;14.40;99.90;;;;;;5068457;28;20045;-71
2022/10/16 09:06:20;;;;;;;4.15;1.17;;;14.40;99.90;;;;;;5084058;28;20087;-71
2022/10/16 09:09:05;;;;;;;4.82;1.00;;;14.50;99.90;;;;;;5067402;28;20674;-71
2022/10/16 09:11:52;;;;;;;3.20;1.13;;;14.70;99.90;;;;;;5068101;28;20070;-71
2022/10/16 09:14:40;;;;;;;5.15;1.05;;;14.70;99.90;;;;;;5088786;28;20051;-72
2022/10/16 09:17:27;;;;;;;3.35;0.90;;;14.80;99.90;;;;;;5087403;28;20494;-71
2022/10/16 09:20:24;;;;;;;5.15;1.40;;;14.90;99.90;;;;;;5083907;28;20051;-71
2022/10/16 09:23:14;;;;;;;4.20;1.20;;;14.90;99.90;;;;;;5064375;28;20544;-71
2022/10/16 09:25:43;;;;;;;6.38;1.00;;;14.90;99.90;;;;;;5066429;28;20052;-70
2022/10/16 09:28:10;;;;;;;6.32;1.33;;;14.90;99.90;;;;;;5066952;28;20135;-71
2022/10/16 09:30:35;;;;;;;3.92;1.20;;;15.00;99.90;;;;;;5066834;28;20086;-71
2022/10/16 09:33:02;;;;;;;5.32;0.80;;;15.00;99.90;;;;;;5069139;28;20041;-71
2022/10/16 09:35:38;;;;;;;;;;;15.00;99.90;;;;;;5068528;28;20059;-70
2022/10/16 09:38:04;;;;;;;6.53;1.10;;;15.00;99.90;;;;;;5083794;28;19973;-71
2022/10/16 09:40:34;;;;;;;10.27;1.70;;;15.00;99.90;;;;;;5075629;28;20501;-71
2022/10/16 09:43:17;;;;;;;2.25;0.80;;;15.10;99.90;;;;;;5066706;28;20052;-71
2022/10/16 09:45:52;;;;;;;5.85;1.85;;;15.20;99.90;;;;;;5085353;28;20424;-71
2022/10/16 09:48:19;;;;;;;8.07;1.30;;;15.20;99.90;;;;;;5088333;28;20088;-70
2022/10/16 09:50:59;;;;;;;5.78;0.85;;;15.30;99.90;;;;;;5084736;28;20047;-71
2022/10/16 09:53:37;;;;;;;5.50;1.20;;;15.40;99.90;;;;;;5066836;28;20041;-71
2022/10/16 09:56:05;;;;;;;6.78;1.25;;;15.50;99.90;;;;;;5067998;28;20040;-71
2022/10/16 09:58:32;;;;;;;7.68;1.02;;;15.50;99.90;;;;;;5066307;28;20101;-71
2022/10/16 10:00:58;;;;;;;4.25;0.80;;;15.60;99.90;;;;;;5068017;28;20113;-72
2022/10/16 10:03:33;;;;;;;9.65;1.08;;;15.60;99.90;;;;;;5066207;28;20223;-71
2022/10/16 10:06:00;;;;;;;10.40;1.02;;;15.70;99.90;;;;;;5066046;28;20044;-71
2022/10/16 10:08:25;;;;;;;6.18;1.48;;;15.80;99.90;;;;;;5065798;28;20048;-71
2022/10/16 10:10:52;;;;;;;8.30;1.20;;;15.90;99.90;;;;;;5069219;28;20046;-71
2022/10/16 10:13:24;;;;;;;5.20;1.00;;;16.00;99.90;;;;;;5085646;28;20092;-71
2022/10/16 10:15:50;;;;;;;5.32;1.38;;;16.00;99.90;;;;;;5065396;28;20036;-71
2022/10/16 10:18:21;;;;;;;3.65;1.00;;;16.10;99.90;;;;;;5066116;28;20048;-71
2022/10/16 10:21:00;;;;;;;4.65;1.50;;;16.20;99.90;;;;;;5065930;28;20052;-70
2022/10/16 10:23:28;;;;;;;4.95;1.35;;;16.20;99.90;;;;;;5066614;28;20416;-71
2022/10/16 10:26:02;;;;;;;4.80;1.33;;;16.30;99.90;;;;;;5079538;28;20036;-70
2022/10/16 10:28:52;;;;;;;4.53;1.08;;;16.30;99.90;;;;;;5087840;28;20058;-71
2022/10/16 10:31:33;;;;;;;9.65;1.70;;;16.30;99.90;;;;;;5086217;28;20138;-71
2022/10/16 10:34:24;;;;;;;2.45;1.15;;;16.30;99.90;;;;;;5086250;28;20452;-71
2022/10/16 10:37:20;;;;;;;6.78;1.10;;;16.40;99.90;;;;;;5087277;28;20408;-71
2022/10/16 10:40:02;;;;;;;6.53;1.40;;;16.40;99.90;;;;;;5076993;28;20113;-71
2022/10/16 10:43:03;;;;;;;7.93;1.70;;;16.50;99.90;;;;;;5067601;28;20048;-70
2022/10/16 10:45:47;;;;;;;9.50;0.80;;;16.70;99.90;;;;;;5072620;28;20065;-70
2022/10/16 10:48:42;;;;;;;6.30;1.30;;;16.60;99.90;;;;;;5085474;28;20058;-71
2022/10/16 10:51:13;;;;;;;4.60;0.88;;;16.80;99.90;;;;;;5085666;28;20047;-71
2022/10/16 10:53:57;;;;;;;7.90;1.38;;;16.80;99.90;;;;;;5085626;28;20105;-71
2022/10/16 10:56:44;;;;;;;7.30;1.58;;;16.80;99.90;;;;;;5070651;28;20055;-71
2022/10/16 10:59:37;;;;;;;7.47;1.25;;;16.80;99.90;;;;;;5071869;28;20048;-71
2022/10/16 11:02:29;;;;;;;7.28;1.10;;;16.90;99.90;;;;;;5066905;28;20044;-72
2022/10/16 11:05:20;;;;;;;7.95;1.33;;;16.90;99.90;;;;;;5065464;28;20041;-72
2022/10/16 11:07:58;;;;;;;5.38;1.10;;;16.90;99.90;;;;;;5065842;28;20049;-71
2022/10/16 11:10:47;;;;;;;5.30;0.63;;;16.70;99.90;;;;;;5075012;28;20032;-71
2022/10/16 11:13:34;;;;;;;8.77;1.40;;;16.60;99.90;;;;;;5066137;28;20436;-72
2022/10/16 11:16:08;;;;;;;8.20;1.67;;;16.50;99.90;;;;;;5065869;28;20416;-70
2022/10/16 11:18:56;;;;;;;5.28;1.45;;;16.40;99.90;;;;;;5065541;28;20062;-70
2022/10/16 11:21:23;;;;;;;3.50;1.10;;;16.30;99.90;;;;;;5064775;28;20052;-72
2022/10/16 11:23:56;;;;;;;10.18;1.60;;;16.30;99.90;;;;;;5085403;28;20500;-71
2022/10/16 11:26:30;;;;;;;8.02;1.25;;;16.40;99.90;;;;;;5078258;28;20040;-70
2022/10/16 11:28:59;;;;;;;4.50;0.95;;;16.60;99.90;;;;;;5078720;28;20391;-71
2022/10/16 11:31:47;;;;;;;6.53;1.23;;;16.60;99.90;;;;;;5068563;28;20330;-71
2022/10/16 11:34:22;;;;;;;9.65;1.25;;;16.60;99.90;;;;;;5087227;28;20214;-71
2022/10/16 11:37:01;;;;;;;8.00;1.40;;;16.70;99.90;;;;;;5068286;28;20044;-71
2022/10/16 11:39:29;;;;;;;8.02;2.22;;;16.80;99.90;;;;;;5088127;28;20512;-70
2022/10/16 11:42:18;;;;;;;6.32;1.00;;;16.90;99.90;;;;;;5084380;28;20055;-70
2022/10/16 11:44:56;;;;;;;5.63;0.82;;;17.00;99.90;;;;;;5070787;28;20041;-72
2022/10/16 11:47:40;;;;;;;6.57;1.25;;;17.00;99.90;;;;;;5071151;28;20470;-71
2022/10/16 11:50:28;;;;;;;3.35;1.20;;;17.00;99.90;;;;;;5069209;28;20040;-71
2022/10/16 11:53:09;;;;;;;7.40;1.35;;;16.90;99.90;;;;;;5069177;28;20123;-71
2022/10/16 11:55:43;;;;;;;8.18;1.17;;;16.90;99.90;;;;;;5069390;28;20413;-71
2022/10/16 11:58:45;;;;;;;10.20;1.77;;;16.80;99.90;;;;;;5069044;28;20106;-71
2022/10/16 12:01:20;;;;;;;11.20;1.48;;;16.60;99.90;;;;;;5046915;28;20640;-71
2022/10/16 12:03:49;;;;;;;11.57;1.80;;;16.50;99.90;;;;;;5070303;28;20508;-71
2022/10/16 12:06:36;;;;;;;12.80;1.48;;;16.50;99.90;;;;;;5077617;28;20048;-71
2022/10/16 12:09:03;;;;;;;6.70;1.02;;;16.50;99.90;;;;;;5090555;28;20086;-71
2022/10/16 12:11:29;;;;;;;5.78;0.80;;;16.40;99.90;;;;;;5087194;28;20115;-71
2022/10/16 12:14:19;;;;;;;6.27;1.03;;;16.40;99.90;;;;;;5068392;28;20401;-71
2022/10/16 12:16:55;;;;;;;3.80;0.73;;;16.60;99.90;;;;;;5079841;28;20279;-70
2022/10/16 12:19:23;;;;;;;5.70;1.15;;;16.70;99.90;;;;;;5088959;28;20067;-71
2022/10/16 12:21:50;;;;;;;6.25;1.30;;;16.80;99.90;;;;;;5071089;28;20044;-71
2022/10/16 12:24:33;;;;;;;9.00;1.70;;;16.90;99.90;;;;;;5090475;28;20052;-71
2022/10/16 12:26:59;;;;;;;10.65;1.48;;;17.00;99.90;;;;;;5089648;28;20051;-72
2022/10/16 12:29:34;;;;;;;;;;;17.00;99.90;;;;;;5089610;28;20044;-71
2022/10/16 12:32:01;;;;;;;11.65;1.27;;;17.00;99.90;;;;;;5067811;28;20305;-72
2022/10/16 12:34:35;;;;;;;6.00;1.00;;;17.10;99.90;;;;;;5069657;28;20051;-71
2022/10/16 12:37:45;;;;;;;4.45;0.90;;;17.10;99.90;;;;;;5068195;28;20551;-71
2022/10/16 12:40:25;;;;;;;4.90;0.88;;;17.10;99.90;;;;;;5065549;28;20128;-72
2022/10/16 12:42:51;;;;;;;5.80;1.30;;;17.00;99.90;;;;;;5069624;28;20056;-71
2022/10/16 12:45:31;;;;;;;3.22;0.68;;;17.00;99.90;;;;;;5068001;28;20048;-71
2022/10/16 12:47:59;;;;;;;4.75;1.25;;;17.00;99.90;;;;;;5068281;28;20465;-71
2022/10/16 12:50:27;;;;;;;6.18;0.90;;;17.00;99.90;;;;;;5066932;28;20056;-71
2022/10/16 12:52:53;;;;;;;4.97;1.38;;;17.10;99.90;;;;;;5068725;28;20036;-71
2022/10/16 12:55:21;;;;;;;9.05;1.45;;;17.00;99.90;;;;;;5050952;28;20051;-71
2022/10/16 12:58:00;;;;;;;3.22;0.82;;;17.00;99.90;;;;;;5078885;28;20143;-70
2022/10/16 13:00:41;;;;;;;3.72;0.77;;;17.00;99.90;;;;;;5087597;28;20047;-71
2022/10/16 13:03:59;;;;;;;10.15;1.10;;;17.00;99.90;;;;;;5089314;28;20044;-71
2022/10/16 13:06:36;;;;;;;5.90;0.98;;;17.00;99.90;;;;;;5087140;28;20433;-71
2022/10/16 13:09:26;;;;;;;6.00;1.20;;;17.00;99.90;;;;;;5069314;28;20080;-71
2022/10/16 13:12:36;;;;;;;4.97;1.17;;;17.00;99.90;;;;;;5075451;28;20032;-71
2022/10/16 13:15:09;;;;;;;6.07;1.10;;;17.10;99.90;;;;;;5029491;28;20104;-71